Date,TemperatureHighF,TemperatureAvgF,TemperatureLowF,DewpointHighF,DewpointAvgF,DewpointLowF,HumidityHigh,HumidityAvg,HumidityLow,PressureMaxIn,PressureMinIn,WindSpeedMaxMPH,WindSpeedAvgMPH,GustSpeedMaxMPH,PrecipitationSumIn
2013-5-1,52.6,36.4,32.0,39.9,33.6,30.2,94,90,53,30.46,29.90,42,20,46,0.72
2013-5-2,50.5,41.7,34.7,31.4,28.3,23.3,86,61,35,30.59,30.41,35,14,37,0.08
2013-5-3,53.1,42.1,30.2,29.9,24.4,12.4,80,53,21,30.41,30.06,34,10,37,0.00
2013-5-4,45.4,40.8,34.9,37.0,30.7,25.3,88,68,57,30.17,30.03,34,15,39,0.00
2013-5-5,58.2,47.0,39.8,45.2,40.2,36.1,89,78,60,30.21,30.11,21,8,22,0.00
2013-5-6,68.7,53.1,34.5,47.2,37.4,30.3,96,62,25,30.17,30.04,13,2,13,0.00
2013-5-7,64.8,56.7,51.3,55.6,50.8,41.5,92,81,60,30.06,29.92,15,5,19,0.03
2013-5-8,65.8,59.3,53.2,59.4,54.5,51.5,96,85,69,29.95,29.89,18,6,22,0.14
2013-5-9,61.7,54.5,49.9,53.8,51.3,48.0,96,89,71,30.07,29.88,25,9,29,0.09
2013-5-10,71.2,57.3,45.5,53.1,45.5,37.3,97,70,30,30.14,30.03,22,6,29,0.01
2013-5-11,62.2,55.1,45.2,44.2,31.9,22.4,75,44,24,30.32,30.09,29,11,36,0.00
2013-5-12,67.1,54.1,40.4,43.7,34.0,22.2,68,47,36,30.26,30.07,17,6,22,0.00
2013-5-13,83.9,65.6,47.5,57.1,48.8,41.8,83,58,31,30.08,29.88,21,8,26,0.00
2013-5-14,94.1,78.6,62.8,56.8,49.8,38.0,71,42,17,29.88,29.68,35,10,47,0.00
2013-5-15,83.0,72.0,59.9,56.6,47.5,39.3,58,42,32,29.90,29.79,42,12,42,0.00
2013-5-16,79.7,69.2,58.5,61.7,58.1,52.1,93,70,42,29.87,29.76,17,4,28,0.00
2013-5-17,84.7,71.8,59.9,61.2,58.2,54.3,88,65,36,29.90,29.81,17,6,21,0.00
2013-5-18,79.5,68.7,61.5,68.5,62.4,54.3,93,81,60,29.87,29.62,42,8,51,0.07
2013-5-19,76.3,65.0,58.4,63.0,57.5,51.6,91,77,59,29.73,29.50,28,5,30,0.21
2013-5-20,69.1,61.4,55.2,55.0,51.0,44.8,91,71,43,29.72,29.57,32,15,41,0.01
2013-5-21,60.9,55.3,49.3,50.5,45.6,41.6,84,70,55,29.80,29.71,37,14,43,0.00
2013-5-22,64.3,54.1,45.7,50.7,46.1,42.4,90,75,58,30.05,29.80,27,12,31,0.00
2013-5-23,68.3,56.4,48.9,51.7,48.2,44.9,88,75,52,30.22,30.05,24,8,26,0.00
2013-5-24,72.5,62.3,52.0,61.7,54.3,48.1,88,76,56,30.22,29.93,32,9,37,0.00
2013-5-25,84.4,70.1,56.6,66.6,61.6,54.5,94,76,50,30.15,29.87,28,7,30,1.34
2013-5-26,82.1,73.0,63.7,69.4,65.5,60.9,93,78,64,29.91,29.74,24,8,32,0.00
2013-5-27,79.9,67.8,58.5,66.5,60.4,56.2,93,78,53,29.83,29.57,33,11,38,0.57
2013-5-28,77.5,67.2,58.5,65.2,61.1,56.2,96,82,61,29.74,29.61,25,8,25,0.00
2013-5-29,76.2,65.7,57.2,70.3,62.5,55.1,96,90,73,29.68,29.42,26,7,38,1.77
2013-5-30,76.1,64.0,56.1,59.5,54.3,42.8,97,74,37,29.66,29.51,30,10,34,0.01
2013-5-31,76.3,65.0,54.5,50.2,45.5,36.8,73,52,26,29.79,29.65,33,13,37,0.00